sensor_id;sensor_type;location;lat;lon;timestamp;P1;durP1;ratioP1;P2;durP2;ratioP2
68072;SDS011;54862;51.502;7.446;2023-07-20T00:02:04;13.80;;;8.30;;
68072;SDS011;54862;51.502;7.446;2023-07-20T00:04:30;13.32;;;7.93;;
68072;SDS011;54862;51.502;7.446;2023-07-20T00:06:57;15.23;;;8.45;;
68072;SDS011;54862;51.502;7.446;2023-07-20T00:09:25;15.13;;;8.52;;
68072;SDS011;54862;51.502;7.446;2023-07-20T00:11:54;14.95;;;8.07;;
68072;SDS011;54862;51.502;7.446;2023-07-20T00:14:20;14.77;;;8.35;;
68072;SDS011;54862;51.502;7.446;2023-07-20T00:16:47;15.90;;;8.82;;
68072;SDS011;54862;51.502;7.446;2023-07-20T00:19:20;15.50;;;9.05;;
68072;SDS011;54862;51.502;7.446;2023-07-20T00:21:46;15.25;;;8.43;;
68072;SDS011;54862;51.502;7.446;2023-07-20T00:24:12;16.55;;;8.88;;
68072;SDS011;54862;51.502;7.446;2023-07-20T00:26:38;13.93;;;9.00;;
68072;SDS011;54862;51.502;7.446;2023-07-20T00:29:04;13.07;;;8.75;;
68072;SDS011;54862;51.502;7.446;2023-07-20T00:31:33;12.30;;;7.95;;
68072;SDS011;54862;51.502;7.446;2023-07-20T00:34:02;15.23;;;8.60;;
68072;SDS011;54862;51.502;7.446;2023-07-20T00:36:27;13.55;;;8.88;;
68072;SDS011;54862;51.502;7.446;2023-07-20T00:38:54;12.90;;;8.45;;
68072;SDS011;54862;51.502;7.446;2023-07-20T00:41:20;17.50;;;8.75;;
68072;SDS011;54862;51.502;7.446;2023-07-20T00:43:46;13.90;;;8.60;;
68072;SDS011;54862;51.502;7.446;2023-07-20T00:46:12;15.18;;;8.80;;
68072;SDS011;54862;51.502;7.446;2023-07-20T00:48:40;13.32;;;8.63;;
68072;SDS011;54862;51.502;7.446;2023-07-20T00:51:07;15.98;;;9.00;;
68072;SDS011;54862;51.502;7.446;2023-07-20T00:53:33;14.25;;;8.50;;
68072;SDS011;54862;51.502;7.446;2023-07-20T00:56:07;15.15;;;9.05;;
68072;SDS011;54862;51.502;7.446;2023-07-20T00:58:36;16.55;;;8.60;;
68072;SDS011;54862;51.502;7.446;2023-07-20T01:01:02;15.32;;;8.90;;
68072;SDS011;54862;51.502;7.446;2023-07-20T01:03:28;15.88;;;9.75;;
68072;SDS011;54862;51.502;7.446;2023-07-20T01:05:54;14.45;;;8.60;;
68072;SDS011;54862;51.502;7.446;2023-07-20T01:08:29;15.52;;;8.75;;
68072;SDS011;54862;51.502;7.446;2023-07-20T01:11:00;16.77;;;8.77;;
68072;SDS011;54862;51.502;7.446;2023-07-20T01:13:29;13.73;;;8.27;;
68072;SDS011;54862;51.502;7.446;2023-07-20T01:16:01;15.07;;;8.70;;
68072;SDS011;54862;51.502;7.446;2023-07-20T01:18:27;16.88;;;8.55;;
68072;SDS011;54862;51.502;7.446;2023-07-20T01:20:55;15.07;;;8.65;;
68072;SDS011;54862;51.502;7.446;2023-07-20T01:31:27;14.27;;;8.53;;
68072;SDS011;54862;51.502;7.446;2023-07-20T01:33:54;17.55;;;8.88;;
68072;SDS011;54862;51.502;7.446;2023-07-20T01:36:24;16.50;;;8.20;;
68072;SDS011;54862;51.502;7.446;2023-07-20T01:38:52;17.08;;;9.43;;
68072;SDS011;54862;51.502;7.446;2023-07-20T01:41:18;14.45;;;8.82;;
68072;SDS011;54862;51.502;7.446;2023-07-20T01:43:44;15.10;;;8.63;;
68072;SDS011;54862;51.502;7.446;2023-07-20T01:46:10;15.48;;;8.50;;
68072;SDS011;54862;51.502;7.446;2023-07-20T01:48:36;13.98;;;8.43;;
68072;SDS011;54862;51.502;7.446;2023-07-20T01:51:05;14.48;;;8.85;;
68072;SDS011;54862;51.502;7.446;2023-07-20T01:53:33;14.20;;;8.05;;
68072;SDS011;54862;51.502;7.446;2023-07-20T01:55:59;15.93;;;8.65;;
68072;SDS011;54862;51.502;7.446;2023-07-20T01:58:25;15.88;;;9.20;;
68072;SDS011;54862;51.502;7.446;2023-07-20T02:00:51;14.38;;;8.73;;
68072;SDS011;54862;51.502;7.446;2023-07-20T02:03:17;12.65;;;8.13;;
68072;SDS011;54862;51.502;7.446;2023-07-20T02:05:46;15.68;;;9.23;;
68072;SDS011;54862;51.502;7.446;2023-07-20T02:08:12;15.25;;;9.05;;
68072;SDS011;54862;51.502;7.446;2023-07-20T02:10:38;15.15;;;8.52;;
68072;SDS011;54862;51.502;7.446;2023-07-20T02:13:07;15.25;;;8.57;;
68072;SDS011;54862;51.502;7.446;2023-07-20T02:15:33;14.20;;;8.30;;
68072;SDS011;54862;51.502;7.446;2023-07-20T02:17:59;15.20;;;8.50;;
68072;SDS011;54862;51.502;7.446;2023-07-20T02:20:25;13.90;;;8.80;;
68072;SDS011;54862;51.502;7.446;2023-07-20T02:22:52;13.23;;;8.57;;
68072;SDS011;54862;51.502;7.446;2023-07-20T02:25:18;17.10;;;9.85;;
68072;SDS011;54862;51.502;7.446;2023-07-20T02:27:44;17.10;;;9.50;;
68072;SDS011;54862;51.502;7.446;2023-07-20T02:30:10;14.77;;;9.00;;
68072;SDS011;54862;51.502;7.446;2023-07-20T02:32:36;13.38;;;8.48;;
68072;SDS011;54862;51.502;7.446;2023-07-20T02:35:02;16.05;;;8.55;;
68072;SDS011;54862;51.502;7.446;2023-07-20T02:37:28;15.27;;;8.68;;
68072;SDS011;54862;51.502;7.446;2023-07-20T02:39:57;14.80;;;8.82;;
68072;SDS011;54862;51.502;7.446;2023-07-20T02:42:23;15.60;;;9.18;;
68072;SDS011;54862;51.502;7.446;2023-07-20T02:44:52;14.55;;;8.90;;
68072;SDS011;54862;51.502;7.446;2023-07-20T02:47:18;15.27;;;8.98;;
68072;SDS011;54862;51.502;7.446;2023-07-20T02:49:44;17.55;;;9.15;;
68072;SDS011;54862;51.502;7.446;2023-07-20T02:52:10;19.52;;;8.98;;
68072;SDS011;54862;51.502;7.446;2023-07-20T02:54:37;17.40;;;9.15;;
68072;SDS011;54862;51.502;7.446;2023-07-20T02:57:05;18.05;;;9.13;;
68072;SDS011;54862;51.502;7.446;2023-07-20T02:59:31;17.83;;;9.32;;
68072;SDS011;54862;51.502;7.446;2023-07-20T03:01:57;16.98;;;10.25;;
68072;SDS011;54862;51.502;7.446;2023-07-20T03:04:25;16.88;;;9.45;;
68072;SDS011;54862;51.502;7.446;2023-07-20T03:06:54;15.88;;;9.07;;
68072;SDS011;54862;51.502;7.446;2023-07-20T03:09:20;21.77;;;9.63;;
68072;SDS011;54862;51.502;7.446;2023-07-20T03:11:47;16.92;;;9.98;;
68072;SDS011;54862;51.502;7.446;2023-07-20T03:14:15;19.95;;;10.52;;
68072;SDS011;54862;51.502;7.446;2023-07-20T03:16:41;18.63;;;10.40;;
68072;SDS011;54862;51.502;7.446;2023-07-20T03:19:09;19.08;;;10.25;;
68072;SDS011;54862;51.502;7.446;2023-07-20T03:21:36;19.27;;;10.52;;
68072;SDS011;54862;51.502;7.446;2023-07-20T03:24:06;20.27;;;10.77;;
68072;SDS011;54862;51.502;7.446;2023-07-20T03:26:32;20.85;;;10.73;;
68072;SDS011;54862;51.502;7.446;2023-07-20T03:28:58;21.45;;;10.93;;
68072;SDS011;54862;51.502;7.446;2023-07-20T03:31:24;21.65;;;11.98;;
68072;SDS011;54862;51.502;7.446;2023-07-20T03:33:52;21.92;;;10.85;;
68072;SDS011;54862;51.502;7.446;2023-07-20T03:36:18;21.40;;;11.23;;
68072;SDS011;54862;51.502;7.446;2023-07-20T03:38:44;20.92;;;11.00;;
68072;SDS011;54862;51.502;7.446;2023-07-20T03:41:12;19.42;;;10.45;;
68072;SDS011;54862;51.502;7.446;2023-07-20T03:43:40;18.15;;;10.70;;
68072;SDS011;54862;51.502;7.446;2023-07-20T03:46:09;19.33;;;10.13;;
68072;SDS011;54862;51.502;7.446;2023-07-20T03:48:37;17.98;;;10.05;;
68072;SDS011;54862;51.502;7.446;2023-07-20T03:51:03;20.17;;;11.25;;
68072;SDS011;54862;51.502;7.446;2023-07-20T03:53:29;21.38;;;11.35;;
68072;SDS011;54862;51.502;7.446;2023-07-20T03:55:55;22.77;;;11.00;;
68072;SDS011;54862;51.502;7.446;2023-07-20T03:58:23;23.30;;;11.68;;
68072;SDS011;54862;51.502;7.446;2023-07-20T04:00:50;21.02;;;11.32;;
68072;SDS011;54862;51.502;7.446;2023-07-20T04:03:16;24.73;;;11.40;;
68072;SDS011;54862;51.502;7.446;2023-07-20T04:05:43;24.15;;;11.00;;
68072;SDS011;54862;51.502;7.446;2023-07-20T04:08:12;22.10;;;12.38;;
68072;SDS011;54862;51.502;7.446;2023-07-20T04:10:43;21.77;;;11.60;;
68072;SDS011;54862;51.502;7.446;2023-07-20T04:13:11;20.27;;;12.43;;
68072;SDS011;54862;51.502;7.446;2023-07-20T04:15:39;22.42;;;11.77;;
68072;SDS011;54862;51.502;7.446;2023-07-20T04:18:05;23.92;;;12.32;;
68072;SDS011;54862;51.502;7.446;2023-07-20T04:20:31;22.90;;;13.45;;
68072;SDS011;54862;51.502;7.446;2023-07-20T04:22:57;24.38;;;13.38;;
68072;SDS011;54862;51.502;7.446;2023-07-20T04:25:26;27.17;;;14.25;;
68072;SDS011;54862;51.502;7.446;2023-07-20T04:27:52;26.35;;;14.65;;
68072;SDS011;54862;51.502;7.446;2023-07-20T04:30:18;26.55;;;14.68;;
68072;SDS011;54862;51.502;7.446;2023-07-20T04:32:50;29.15;;;15.23;;
68072;SDS011;54862;51.502;7.446;2023-07-20T04:35:25;31.02;;;16.80;;
68072;SDS011;54862;51.502;7.446;2023-07-20T04:38:04;32.80;;;18.27;;
68072;SDS011;54862;51.502;7.446;2023-07-20T04:40:30;33.67;;;18.73;;
68072;SDS011;54862;51.502;7.446;2023-07-20T04:42:56;33.20;;;18.63;;
68072;SDS011;54862;51.502;7.446;2023-07-20T04:45:22;31.80;;;18.63;;
68072;SDS011;54862;51.502;7.446;2023-07-20T04:47:50;29.98;;;18.45;;
68072;SDS011;54862;51.502;7.446;2023-07-20T04:50:16;29.63;;;18.23;;
68072;SDS011;54862;51.502;7.446;2023-07-20T04:52:42;28.77;;;17.38;;
68072;SDS011;54862;51.502;7.446;2023-07-20T04:55:11;30.15;;;17.95;;
68072;SDS011;54862;51.502;7.446;2023-07-20T04:57:37;29.73;;;17.65;;
68072;SDS011;54862;51.502;7.446;2023-07-20T05:00:03;31.33;;;18.40;;
68072;SDS011;54862;51.502;7.446;2023-07-20T05:02:29;29.67;;;17.60;;
68072;SDS011;54862;51.502;7.446;2023-07-20T05:04:55;29.23;;;17.05;;
68072;SDS011;54862;51.502;7.446;2023-07-20T05:07:21;30.17;;;16.88;;
68072;SDS011;54862;51.502;7.446;2023-07-20T05:09:52;26.75;;;16.95;;
68072;SDS011;54862;51.502;7.446;2023-07-20T05:12:18;26.80;;;16.60;;
68072;SDS011;54862;51.502;7.446;2023-07-20T05:14:44;24.85;;;15.63;;
68072;SDS011;54862;51.502;7.446;2023-07-20T05:17:12;30.23;;;16.15;;
68072;SDS011;54862;51.502;7.446;2023-07-20T05:19:38;25.88;;;15.18;;
68072;SDS011;54862;51.502;7.446;2023-07-20T05:22:04;27.35;;;15.23;;
68072;SDS011;54862;51.502;7.446;2023-07-20T05:24:30;22.25;;;14.07;;
68072;SDS011;54862;51.502;7.446;2023-07-20T05:26:57;21.30;;;12.88;;
68072;SDS011;54862;51.502;7.446;2023-07-20T05:29:26;21.08;;;12.18;;
68072;SDS011;54862;51.502;7.446;2023-07-20T05:31:52;19.13;;;11.65;;
68072;SDS011;54862;51.502;7.446;2023-07-20T05:34:18;19.25;;;11.45;;
68072;SDS011;54862;51.502;7.446;2023-07-20T05:36:44;18.15;;;12.32;;
68072;SDS011;54862;51.502;7.446;2023-07-20T05:39:10;20.23;;;11.82;;
68072;SDS011;54862;51.502;7.446;2023-07-20T05:41:36;17.83;;;10.85;;
68072;SDS011;54862;51.502;7.446;2023-07-20T05:44:02;20.20;;;11.75;;
68072;SDS011;54862;51.502;7.446;2023-07-20T05:46:31;18.50;;;11.52;;
68072;SDS011;54862;51.502;7.446;2023-07-20T05:48:57;17.88;;;11.15;;
68072;SDS011;54862;51.502;7.446;2023-07-20T05:51:23;19.33;;;11.40;;
68072;SDS011;54862;51.502;7.446;2023-07-20T05:53:48;17.92;;;10.52;;
68072;SDS011;54862;51.502;7.446;2023-07-20T05:56:14;16.80;;;10.05;;
68072;SDS011;54862;51.502;7.446;2023-07-20T05:58:41;17.70;;;9.95;;
68072;SDS011;54862;51.502;7.446;2023-07-20T06:01:10;15.75;;;9.55;;
68072;SDS011;54862;51.502;7.446;2023-07-20T06:03:36;15.52;;;9.65;;
68072;SDS011;54862;51.502;7.446;2023-07-20T06:06:04;16.52;;;10.07;;
68072;SDS011;54862;51.502;7.446;2023-07-20T06:08:31;20.92;;;9.10;;
68072;SDS011;54862;51.502;7.446;2023-07-20T06:10:59;14.68;;;8.88;;
68072;SDS011;54862;51.502;7.446;2023-07-20T06:13:28;12.75;;;7.88;;
68072;SDS011;54862;51.502;7.446;2023-07-20T06:15:56;13.65;;;7.88;;
68072;SDS011;54862;51.502;7.446;2023-07-20T06:18:22;14.60;;;8.50;;
68072;SDS011;54862;51.502;7.446;2023-07-20T06:20:51;13.23;;;7.65;;
68072;SDS011;54862;51.502;7.446;2023-07-20T06:23:18;16.33;;;8.30;;
68072;SDS011;54862;51.502;7.446;2023-07-20T06:25:46;13.20;;;7.60;;
68072;SDS011;54862;51.502;7.446;2023-07-20T06:28:13;14.98;;;7.65;;
68072;SDS011;54862;51.502;7.446;2023-07-20T06:30:45;10.90;;;6.80;;
68072;SDS011;54862;51.502;7.446;2023-07-20T06:33:11;12.90;;;7.20;;
68072;SDS011;54862;51.502;7.446;2023-07-20T06:35:37;13.60;;;7.43;;
68072;SDS011;54862;51.502;7.446;2023-07-20T06:38:05;13.23;;;7.43;;
68072;SDS011;54862;51.502;7.446;2023-07-20T06:40:33;12.40;;;7.00;;
68072;SDS011;54862;51.502;7.446;2023-07-20T06:42:59;12.75;;;7.00;;
68072;SDS011;54862;51.502;7.446;2023-07-20T06:45:25;11.27;;;7.00;;
68072;SDS011;54862;51.502;7.446;2023-07-20T06:47:53;11.80;;;6.90;;
68072;SDS011;54862;51.502;7.446;2023-07-20T06:50:19;11.80;;;6.53;;
68072;SDS011;54862;51.502;7.446;2023-07-20T06:52:45;11.88;;;6.93;;
68072;SDS011;54862;51.502;7.446;2023-07-20T06:55:12;10.48;;;5.72;;
68072;SDS011;54862;51.502;7.446;2023-07-20T06:57:39;13.30;;;6.35;;
68072;SDS011;54862;51.502;7.446;2023-07-20T07:00:05;11.02;;;6.25;;
68072;SDS011;54862;51.502;7.446;2023-07-20T07:02:32;8.95;;;4.93;;
68072;SDS011;54862;51.502;7.446;2023-07-20T07:04:59;7.80;;;3.47;;
68072;SDS011;54862;51.502;7.446;2023-07-20T07:07:25;7.97;;;3.45;;
68072;SDS011;54862;51.502;7.446;2023-07-20T07:09:53;9.02;;;2.75;;
68072;SDS011;54862;51.502;7.446;2023-07-20T07:12:19;5.68;;;2.75;;
68072;SDS011;54862;51.502;7.446;2023-07-20T07:14:48;6.38;;;3.03;;
68072;SDS011;54862;51.502;7.446;2023-07-20T07:17:14;10.15;;;3.65;;
68072;SDS011;54862;51.502;7.446;2023-07-20T07:19:40;7.43;;;3.53;;
68072;SDS011;54862;51.502;7.446;2023-07-20T07:22:07;6.70;;;3.63;;
68072;SDS011;54862;51.502;7.446;2023-07-20T07:24:33;8.55;;;3.85;;
68072;SDS011;54862;51.502;7.446;2023-07-20T07:27:02;7.57;;;3.92;;
68072;SDS011;54862;51.502;7.446;2023-07-20T07:29:29;6.35;;;3.45;;
68072;SDS011;54862;51.502;7.446;2023-07-20T07:31:55;6.60;;;3.55;;
68072;SDS011;54862;51.502;7.446;2023-07-20T07:34:21;8.32;;;3.55;;
68072;SDS011;54862;51.502;7.446;2023-07-20T07:36:47;7.70;;;4.00;;
68072;SDS011;54862;51.502;7.446;2023-07-20T07:39:13;8.73;;;4.38;;
68072;SDS011;54862;51.502;7.446;2023-07-20T07:41:39;8.23;;;4.72;;
68072;SDS011;54862;51.502;7.446;2023-07-20T07:44:05;8.68;;;4.95;;
68072;SDS011;54862;51.502;7.446;2023-07-20T07:46:33;9.15;;;4.60;;
68072;SDS011;54862;51.502;7.446;2023-07-20T07:48:59;8.63;;;3.90;;
68072;SDS011;54862;51.502;7.446;2023-07-20T07:51:25;6.90;;;3.95;;
68072;SDS011;54862;51.502;7.446;2023-07-20T07:53:56;8.48;;;4.45;;
68072;SDS011;54862;51.502;7.446;2023-07-20T07:56:22;8.32;;;4.47;;
68072;SDS011;54862;51.502;7.446;2023-07-20T07:58:50;8.45;;;4.20;;
68072;SDS011;54862;51.502;7.446;2023-07-20T08:01:21;7.82;;;4.20;;
68072;SDS011;54862;51.502;7.446;2023-07-20T08:03:50;7.97;;;4.75;;
68072;SDS011;54862;51.502;7.446;2023-07-20T08:06:16;7.90;;;4.22;;
68072;SDS011;54862;51.502;7.446;2023-07-20T08:08:43;7.82;;;3.40;;
68072;SDS011;54862;51.502;7.446;2023-07-20T08:11:09;5.97;;;3.20;;
68072;SDS011;54862;51.502;7.446;2023-07-20T08:13:35;7.07;;;3.00;;
68072;SDS011;54862;51.502;7.446;2023-07-20T08:16:01;7.30;;;3.42;;
68072;SDS011;54862;51.502;7.446;2023-07-20T08:18:27;9.30;;;3.60;;
68072;SDS011;54862;51.502;7.446;2023-07-20T08:20:53;6.95;;;3.00;;
68072;SDS011;54862;51.502;7.446;2023-07-20T08:23:22;6.63;;;2.63;;
68072;SDS011;54862;51.502;7.446;2023-07-20T08:25:48;5.32;;;2.30;;
68072;SDS011;54862;51.502;7.446;2023-07-20T08:28:14;4.93;;;2.55;;
68072;SDS011;54862;51.502;7.446;2023-07-20T08:30:41;5.20;;;2.67;;
68072;SDS011;54862;51.502;7.446;2023-07-20T08:33:12;6.88;;;2.72;;
68072;SDS011;54862;51.502;7.446;2023-07-20T08:35:38;3.88;;;2.15;;
68072;SDS011;54862;51.502;7.446;2023-07-20T08:38:06;2.92;;;1.83;;
68072;SDS011;54862;51.502;7.446;2023-07-20T08:40:42;4.97;;;2.33;;
68072;SDS011;54862;51.502;7.446;2023-07-20T08:43:11;4.85;;;2.00;;
68072;SDS011;54862;51.502;7.446;2023-07-20T08:45:40;4.22;;;1.90;;
68072;SDS011;54862;51.502;7.446;2023-07-20T08:48:07;5.45;;;2.30;;
68072;SDS011;54862;51.502;7.446;2023-07-20T08:50:36;6.00;;;2.22;;
68072;SDS011;54862;51.502;7.446;2023-07-20T08:53:05;4.80;;;2.20;;
68072;SDS011;54862;51.502;7.446;2023-07-20T08:55:32;2.72;;;1.80;;
68072;SDS011;54862;51.502;7.446;2023-07-20T08:57:59;2.38;;;1.83;;
68072;SDS011;54862;51.502;7.446;2023-07-20T09:00:26;3.42;;;1.90;;
68072;SDS011;54862;51.502;7.446;2023-07-20T09:02:55;4.25;;;2.10;;
68072;SDS011;54862;51.502;7.446;2023-07-20T09:05:22;3.72;;;2.20;;
68072;SDS011;54862;51.502;7.446;2023-07-20T09:07:52;3.20;;;2.13;;
68072;SDS011;54862;51.502;7.446;2023-07-20T09:10:19;2.17;;;1.55;;
68072;SDS011;54862;51.502;7.446;2023-07-20T09:12:48;3.03;;;1.67;;
68072;SDS011;54862;51.502;7.446;2023-07-20T09:15:14;3.50;;;1.70;;
68072;SDS011;54862;51.502;7.446;2023-07-20T09:17:48;3.63;;;1.73;;
68072;SDS011;54862;51.502;7.446;2023-07-20T09:20:15;3.23;;;1.63;;
68072;SDS011;54862;51.502;7.446;2023-07-20T09:22:42;3.28;;;1.63;;
68072;SDS011;54862;51.502;7.446;2023-07-20T09:25:13;4.63;;;1.73;;
68072;SDS011;54862;51.502;7.446;2023-07-20T09:27:40;3.47;;;1.80;;
68072;SDS011;54862;51.502;7.446;2023-07-20T09:30:06;2.50;;;1.60;;
68072;SDS011;54862;51.502;7.446;2023-07-20T09:32:46;3.38;;;1.63;;
68072;SDS011;54862;51.502;7.446;2023-07-20T09:35:22;1.60;;;1.50;;
68072;SDS011;54862;51.502;7.446;2023-07-20T09:37:58;1.40;;;1.30;;
68072;SDS011;54862;51.502;7.446;2023-07-20T09:40:24;1.92;;;1.70;;
68072;SDS011;54862;51.502;7.446;2023-07-20T09:42:51;2.33;;;1.55;;
68072;SDS011;54862;51.502;7.446;2023-07-20T09:45:18;2.20;;;1.67;;
68072;SDS011;54862;51.502;7.446;2023-07-20T09:47:45;2.88;;;1.60;;
68072;SDS011;54862;51.502;7.446;2023-07-20T09:50:11;2.88;;;1.55;;
68072;SDS011;54862;51.502;7.446;2023-07-20T09:52:40;2.97;;;1.80;;
68072;SDS011;54862;51.502;7.446;2023-07-20T09:55:07;2.38;;;1.90;;
68072;SDS011;54862;51.502;7.446;2023-07-20T09:57:34;3.30;;;1.75;;
68072;SDS011;54862;51.502;7.446;2023-07-20T10:00:01;2.65;;;1.50;;
68072;SDS011;54862;51.502;7.446;2023-07-20T10:02:30;2.45;;;1.63;;
68072;SDS011;54862;51.502;7.446;2023-07-20T10:04:58;1.90;;;1.58;;
68072;SDS011;54862;51.502;7.446;2023-07-20T10:07:28;2.15;;;1.58;;
68072;SDS011;54862;51.502;7.446;2023-07-20T10:09:55;2.05;;;1.50;;
68072;SDS011;54862;51.502;7.446;2023-07-20T10:12:22;1.83;;;1.40;;
68072;SDS011;54862;51.502;7.446;2023-07-20T10:14:54;3.08;;;1.67;;
68072;SDS011;54862;51.502;7.446;2023-07-20T10:17:26;2.60;;;1.70;;
68072;SDS011;54862;51.502;7.446;2023-07-20T10:19:54;2.35;;;1.50;;
68072;SDS011;54862;51.502;7.446;2023-07-20T10:22:24;2.85;;;1.75;;
68072;SDS011;54862;51.502;7.446;2023-07-20T10:24:51;1.60;;;1.50;;
68072;SDS011;54862;51.502;7.446;2023-07-20T10:27:19;2.60;;;1.60;;
68072;SDS011;54862;51.502;7.446;2023-07-20T10:29:46;3.00;;;1.65;;
68072;SDS011;54862;51.502;7.446;2023-07-20T10:32:12;3.95;;;1.70;;
68072;SDS011;54862;51.502;7.446;2023-07-20T10:34:38;5.40;;;1.80;;
68072;SDS011;54862;51.502;7.446;2023-07-20T10:37:05;4.70;;;1.70;;
68072;SDS011;54862;51.502;7.446;2023-07-20T10:39:31;1.60;;;1.50;;
68072;SDS011;54862;51.502;7.446;2023-07-20T10:42:07;2.88;;;1.63;;
68072;SDS011;54862;51.502;7.446;2023-07-20T10:44:34;2.42;;;1.60;;
68072;SDS011;54862;51.502;7.446;2023-07-20T10:47:00;3.00;;;1.70;;
68072;SDS011;54862;51.502;7.446;2023-07-20T10:49:26;2.30;;;1.80;;
68072;SDS011;54862;51.502;7.446;2023-07-20T10:51:56;1.73;;;1.63;;
68072;SDS011;54862;51.502;7.446;2023-07-20T10:56:52;3.03;;;2.00;;
68072;SDS011;54862;51.502;7.446;2023-07-20T10:59:41;3.63;;;2.00;;
68072;SDS011;54862;51.502;7.446;2023-07-20T11:02:07;2.33;;;1.85;;
68072;SDS011;54862;51.502;7.446;2023-07-20T11:07:07;3.47;;;2.00;;
68072;SDS011;54862;51.502;7.446;2023-07-20T11:09:35;3.38;;;2.08;;
68072;SDS011;54862;51.502;7.446;2023-07-20T11:12:11;2.92;;;2.10;;
68072;SDS011;54862;51.502;7.446;2023-07-20T11:14:42;2.85;;;2.10;;
68072;SDS011;54862;51.502;7.446;2023-07-20T11:17:12;2.63;;;2.20;;
68072;SDS011;54862;51.502;7.446;2023-07-20T11:19:38;4.43;;;2.03;;
68072;SDS011;54862;51.502;7.446;2023-07-20T11:22:05;4.22;;;2.17;;
68072;SDS011;54862;51.502;7.446;2023-07-20T11:24:36;2.72;;;2.00;;
68072;SDS011;54862;51.502;7.446;2023-07-20T11:27:03;2.83;;;2.10;;
68072;SDS011;54862;51.502;7.446;2023-07-20T11:29:32;2.65;;;1.88;;
68072;SDS011;54862;51.502;7.446;2023-07-20T11:31:58;2.63;;;2.00;;
68072;SDS011;54862;51.502;7.446;2023-07-20T11:34:24;3.25;;;2.28;;
68072;SDS011;54862;51.502;7.446;2023-07-20T11:36:51;2.45;;;1.90;;
68072;SDS011;54862;51.502;7.446;2023-07-20T11:39:18;3.05;;;1.90;;
68072;SDS011;54862;51.502;7.446;2023-07-20T11:41:51;2.35;;;2.03;;
68072;SDS011;54862;51.502;7.446;2023-07-20T11:44:21;4.88;;;2.30;;
68072;SDS011;54862;51.502;7.446;2023-07-20T11:49:27;3.80;;;2.13;;
68072;SDS011;54862;51.502;7.446;2023-07-20T11:51:53;3.08;;;2.00;;
68072;SDS011;54862;51.502;7.446;2023-07-20T11:54:19;3.17;;;2.20;;
68072;SDS011;54862;51.502;7.446;2023-07-20T11:56:45;2.95;;;2.25;;
68072;SDS011;54862;51.502;7.446;2023-07-20T11:59:12;4.90;;;2.30;;
68072;SDS011;54862;51.502;7.446;2023-07-20T12:01:38;4.25;;;2.35;;
68072;SDS011;54862;51.502;7.446;2023-07-20T12:04:04;3.13;;;2.40;;
68072;SDS011;54862;51.502;7.446;2023-07-20T12:06:32;3.70;;;2.30;;
68072;SDS011;54862;51.502;7.446;2023-07-20T12:09:00;3.58;;;2.30;;
68072;SDS011;54862;51.502;7.446;2023-07-20T12:11:35;3.50;;;2.50;;
68072;SDS011;54862;51.502;7.446;2023-07-20T12:14:02;3.10;;;2.10;;
68072;SDS011;54862;51.502;7.446;2023-07-20T12:16:28;4.15;;;2.20;;
68072;SDS011;54862;51.502;7.446;2023-07-20T12:21:30;5.22;;;2.30;;
68072;SDS011;54862;51.502;7.446;2023-07-20T12:23:58;2.92;;;2.22;;
68072;SDS011;54862;51.502;7.446;2023-07-20T12:26:25;3.78;;;2.10;;
68072;SDS011;54862;51.502;7.446;2023-07-20T12:28:51;2.45;;;1.90;;
68072;SDS011;54862;51.502;7.446;2023-07-20T12:31:20;2.00;;;1.80;;
68072;SDS011;54862;51.502;7.446;2023-07-20T12:33:47;2.90;;;2.03;;
68072;SDS011;54862;51.502;7.446;2023-07-20T12:36:14;3.85;;;1.83;;
68072;SDS011;54862;51.502;7.446;2023-07-20T12:38:40;2.97;;;2.03;;
68072;SDS011;54862;51.502;7.446;2023-07-20T12:41:07;4.30;;;1.80;;
68072;SDS011;54862;51.502;7.446;2023-07-20T12:43:33;2.40;;;1.85;;
68072;SDS011;54862;51.502;7.446;2023-07-20T12:45:59;2.70;;;1.55;;
68072;SDS011;54862;51.502;7.446;2023-07-20T12:48:25;2.80;;;1.70;;
68072;SDS011;54862;51.502;7.446;2023-07-20T12:50:51;2.10;;;1.65;;
68072;SDS011;54862;51.502;7.446;2023-07-20T12:53:17;2.15;;;1.80;;
68072;SDS011;54862;51.502;7.446;2023-07-20T12:55:45;2.90;;;2.00;;
68072;SDS011;54862;51.502;7.446;2023-07-20T12:58:11;2.35;;;1.70;;
68072;SDS011;54862;51.502;7.446;2023-07-20T13:00:38;2.13;;;1.80;;
68072;SDS011;54862;51.502;7.446;2023-07-20T13:03:04;3.67;;;1.80;;
68072;SDS011;54862;51.502;7.446;2023-07-20T13:05:31;2.85;;;1.67;;
68072;SDS011;54862;51.502;7.446;2023-07-20T13:07:58;2.40;;;1.60;;
68072;SDS011;54862;51.502;7.446;2023-07-20T13:10:26;2.85;;;1.90;;
68072;SDS011;54862;51.502;7.446;2023-07-20T13:12:54;2.00;;;1.80;;
68072;SDS011;54862;51.502;7.446;2023-07-20T13:15:20;2.22;;;1.67;;
68072;SDS011;54862;51.502;7.446;2023-07-20T13:17:46;2.50;;;1.90;;
68072;SDS011;54862;51.502;7.446;2023-07-20T13:20:14;2.72;;;1.90;;
68072;SDS011;54862;51.502;7.446;2023-07-20T13:22:45;2.28;;;1.90;;
68072;SDS011;54862;51.502;7.446;2023-07-20T13:25:12;4.53;;;1.90;;
68072;SDS011;54862;51.502;7.446;2023-07-20T13:27:40;2.67;;;1.67;;
68072;SDS011;54862;51.502;7.446;2023-07-20T13:30:07;2.05;;;1.80;;
68072;SDS011;54862;51.502;7.446;2023-07-20T13:32:34;2.13;;;1.83;;
68072;SDS011;54862;51.502;7.446;2023-07-20T13:35:01;1.73;;;1.63;;
68072;SDS011;54862;51.502;7.446;2023-07-20T13:37:27;2.72;;;1.80;;
68072;SDS011;54862;51.502;7.446;2023-07-20T13:39:53;2.10;;;1.55;;
68072;SDS011;54862;51.502;7.446;2023-07-20T13:42:19;2.72;;;1.80;;
68072;SDS011;54862;51.502;7.446;2023-07-20T13:44:46;2.30;;;1.75;;
68072;SDS011;54862;51.502;7.446;2023-07-20T13:47:13;2.63;;;1.70;;
68072;SDS011;54862;51.502;7.446;2023-07-20T13:49:39;1.83;;;1.73;;
68072;SDS011;54862;51.502;7.446;2023-07-20T13:52:05;2.13;;;1.80;;
68072;SDS011;54862;51.502;7.446;2023-07-20T13:54:31;2.40;;;1.80;;
68072;SDS011;54862;51.502;7.446;2023-07-20T13:56:57;2.17;;;1.77;;
68072;SDS011;54862;51.502;7.446;2023-07-20T13:59:23;2.22;;;1.70;;
68072;SDS011;54862;51.502;7.446;2023-07-20T14:01:49;1.80;;;1.60;;
68072;SDS011;54862;51.502;7.446;2023-07-20T14:04:15;2.50;;;1.90;;
68072;SDS011;54862;51.502;7.446;2023-07-20T14:06:42;2.40;;;1.60;;
68072;SDS011;54862;51.502;7.446;2023-07-20T14:09:12;3.78;;;1.50;;
68072;SDS011;54862;51.502;7.446;2023-07-20T14:11:38;4.35;;;1.90;;
68072;SDS011;54862;51.502;7.446;2023-07-20T14:14:06;3.42;;;1.77;;
68072;SDS011;54862;51.502;7.446;2023-07-20T14:16:32;3.55;;;1.90;;
68072;SDS011;54862;51.502;7.446;2023-07-20T14:18:58;2.85;;;1.90;;
68072;SDS011;54862;51.502;7.446;2023-07-20T14:21:24;2.88;;;1.70;;
68072;SDS011;54862;51.502;7.446;2023-07-20T14:23:51;1.92;;;1.70;;
68072;SDS011;54862;51.502;7.446;2023-07-20T14:26:20;2.53;;;1.88;;
68072;SDS011;54862;51.502;7.446;2023-07-20T14:28:46;3.72;;;1.90;;
68072;SDS011;54862;51.502;7.446;2023-07-20T14:31:12;2.28;;;1.77;;
68072;SDS011;54862;51.502;7.446;2023-07-20T14:33:38;2.53;;;1.85;;
68072;SDS011;54862;51.502;7.446;2023-07-20T14:36:05;2.67;;;1.98;;
68072;SDS011;54862;51.502;7.446;2023-07-20T14:38:31;2.80;;;2.00;;
68072;SDS011;54862;51.502;7.446;2023-07-20T14:40:57;2.13;;;1.80;;
68072;SDS011;54862;51.502;7.446;2023-07-20T14:43:23;2.10;;;1.80;;
68072;SDS011;54862;51.502;7.446;2023-07-20T14:45:49;4.35;;;2.00;;
68072;SDS011;54862;51.502;7.446;2023-07-20T14:48:15;2.45;;;1.75;;
68072;SDS011;54862;51.502;7.446;2023-07-20T14:50:44;3.97;;;1.88;;
68072;SDS011;54862;51.502;7.446;2023-07-20T14:53:12;3.63;;;2.10;;
68072;SDS011;54862;51.502;7.446;2023-07-20T14:55:38;3.13;;;1.80;;
68072;SDS011;54862;51.502;7.446;2023-07-20T14:58:04;3.33;;;2.00;;